sensor_id;sensor_type;location;lat;lon;timestamp;pressure;altitude;pressure_sealevel;temperature;humidity
44309;BME280;30022;55.846;37.340;2024-03-25T00:01:04;-18220.69;;;-143.51;100.00
44309;BME280;30022;55.846;37.340;2024-03-25T00:03:30;-18220.69;;;-143.51;100.00
44309;BME280;30022;55.846;37.340;2024-03-25T00:05:56;-18220.69;;;-143.51;100.00
44309;BME280;30022;55.846;37.340;2024-03-25T00:08:22;-18220.69;;;-143.51;100.00
44309;BME280;30022;55.846;37.340;2024-03-25T00:10:48;-18220.69;;;-143.51;100.00
44309;BME280;30022;55.846;37.340;2024-03-25T00:13:14;-18220.69;;;-143.51;100.00
44309;BME280;30022;55.846;37.340;2024-03-25T00:15:40;-18220.69;;;-143.51;100.00
44309;BME280;30022;55.846;37.340;2024-03-25T00:18:07;-18220.69;;;-143.51;100.00
44309;BME280;30022;55.846;37.340;2024-03-25T00:20:33;-18220.69;;;-143.51;100.00
44309;BME280;30022;55.846;37.340;2024-03-25T00:22:58;-18220.69;;;-143.51;100.00
44309;BME280;30022;55.846;37.340;2024-03-25T00:25:25;-18220.69;;;-143.51;100.00
44309;BME280;30022;55.846;37.340;2024-03-25T00:27:51;-18220.69;;;-143.51;100.00
44309;BME280;30022;55.846;37.340;2024-03-25T00:30:17;-18220.69;;;-143.51;100.00
44309;BME280;30022;55.846;37.340;2024-03-25T00:32:42;-18220.69;;;-143.51;100.00
44309;BME280;30022;55.846;37.340;2024-03-25T00:35:08;-18220.69;;;-143.51;100.00
44309;BME280;30022;55.846;37.340;2024-03-25T00:37:33;-18220.69;;;-143.51;100.00
44309;BME280;30022;55.846;37.340;2024-03-25T00:39:59;-18220.69;;;-143.51;100.00
44309;BME280;30022;55.846;37.340;2024-03-25T00:42:25;-18220.69;;;-143.51;100.00
44309;BME280;30022;55.846;37.340;2024-03-25T00:44:51;-18220.69;;;-143.51;100.00
44309;BME280;30022;55.846;37.340;2024-03-25T00:47:17;-18220.69;;;-143.51;100.00
44309;BME280;30022;55.846;37.340;2024-03-25T00:49:42;-18220.69;;;-143.51;100.00
44309;BME280;30022;55.846;37.340;2024-03-25T00:52:08;-18220.69;;;-143.51;100.00
44309;BME280;30022;55.846;37.340;2024-03-25T00:54:34;-18220.69;;;-143.51;100.00
44309;BME280;30022;55.846;37.340;2024-03-25T00:56:59;-18220.69;;;-143.51;100.00
44309;BME280;30022;55.846;37.340;2024-03-25T00:59:25;-18220.69;;;-143.51;100.00
44309;BME280;30022;55.846;37.340;2024-03-25T01:01:51;-18220.69;;;-143.51;100.00
44309;BME280;30022;55.846;37.340;2024-03-25T01:04:17;-18220.69;;;-143.51;100.00
44309;BME280;30022;55.846;37.340;2024-03-25T01:06:43;-18220.69;;;-143.51;100.00
44309;BME280;30022;55.846;37.340;2024-03-25T01:09:09;-18220.69;;;-143.51;100.00
44309;BME280;30022;55.846;37.340;2024-03-25T01:11:35;-18220.69;;;-143.51;100.00
44309;BME280;30022;55.846;37.340;2024-03-25T01:14:01;-18220.69;;;-143.51;100.00
44309;BME280;30022;55.846;37.340;2024-03-25T01:16:27;-18220.69;;;-143.51;100.00
44309;BME280;30022;55.846;37.340;2024-03-25T01:18:52;-18220.69;;;-143.51;100.00
44309;BME280;30022;55.846;37.340;2024-03-25T01:21:18;-18220.69;;;-143.51;100.00
44309;BME280;30022;55.846;37.340;2024-03-25T01:23:44;-18220.69;;;-143.51;100.00
44309;BME280;30022;55.846;37.340;2024-03-25T01:26:10;-18220.69;;;-143.51;100.00
44309;BME280;30022;55.846;37.340;2024-03-25T01:28:36;-18220.69;;;-143.51;100.00
44309;BME280;30022;55.846;37.340;2024-03-25T01:31:01;-18220.69;;;-143.51;100.00
44309;BME280;30022;55.846;37.340;2024-03-25T01:33:27;-18220.69;;;-143.51;100.00
44309;BME280;30022;55.846;37.340;2024-03-25T01:35:54;-18220.69;;;-143.51;100.00
44309;BME280;30022;55.846;37.340;2024-03-25T01:38:21;-18220.69;;;-143.51;100.00
44309;BME280;30022;55.846;37.340;2024-03-25T01:40:46;-18220.69;;;-143.51;100.00
44309;BME280;30022;55.846;37.340;2024-03-25T01:43:13;-18220.69;;;-143.51;100.00
44309;BME280;30022;55.846;37.340;2024-03-25T01:45:38;-18220.69;;;-143.51;100.00
44309;BME280;30022;55.846;37.340;2024-03-25T01:48:06;-18220.69;;;-143.51;100.00
44309;BME280;30022;55.846;37.340;2024-03-25T01:50:33;-18220.69;;;-143.51;100.00
44309;BME280;30022;55.846;37.340;2024-03-25T01:53:01;-18220.69;;;-143.51;100.00
44309;BME280;30022;55.846;37.340;2024-03-25T01:55:27;-18220.69;;;-143.51;100.00
44309;BME280;30022;55.846;37.340;2024-03-25T01:57:53;-18220.69;;;-143.51;100.00
44309;BME280;30022;55.846;37.340;2024-03-25T02:00:19;-18220.69;;;-143.51;100.00
44309;BME280;30022;55.846;37.340;2024-03-25T02:02:45;-18220.69;;;-143.51;100.00
44309;BME280;30022;55.846;37.340;2024-03-25T02:05:15;-18220.69;;;-143.51;100.00
44309;BME280;30022;55.846;37.340;2024-03-25T02:07:42;-18220.69;;;-143.51;100.00
44309;BME280;30022;55.846;37.340;2024-03-25T02:10:08;-18220.69;;;-143.51;100.00
44309;BME280;30022;55.846;37.340;2024-03-25T02:12:41;-18220.69;;;-143.51;100.00
44309;BME280;30022;55.846;37.340;2024-03-25T02:15:08;-18220.69;;;-143.51;100.00
44309;BME280;30022;55.846;37.340;2024-03-25T02:17:34;-18220.69;;;-143.51;100.00
44309;BME280;30022;55.846;37.340;2024-03-25T02:20:00;-18220.69;;;-143.51;100.00
44309;BME280;30022;55.846;37.340;2024-03-25T02:22:25;-18220.69;;;-143.51;100.00
44309;BME280;30022;55.846;37.340;2024-03-25T02:24:52;-18220.69;;;-143.51;100.00
44309;BME280;30022;55.846;37.340;2024-03-25T02:27:18;-18220.69;;;-143.51;100.00
44309;BME280;30022;55.846;37.340;2024-03-25T02:29:44;-18220.69;;;-143.51;100.00
44309;BME280;30022;55.846;37.340;2024-03-25T02:32:10;-18220.69;;;-143.51;100.00
44309;BME280;30022;55.846;37.340;2024-03-25T02:34:39;-18220.69;;;-143.51;100.00
44309;BME280;30022;55.846;37.340;2024-03-25T02:37:05;-18220.69;;;-143.51;100.00
44309;BME280;30022;55.846;37.340;2024-03-25T02:39:31;-18220.69;;;-143.51;100.00
44309;BME280;30022;55.846;37.340;2024-03-25T02:41:56;-18220.69;;;-143.51;100.00
44309;BME280;30022;55.846;37.340;2024-03-25T02:44:22;-18220.69;;;-143.51;100.00
44309;BME280;30022;55.846;37.340;2024-03-25T02:46:49;-18220.69;;;-143.51;100.00
44309;BME280;30022;55.846;37.340;2024-03-25T02:49:14;-18220.69;;;-143.51;100.00
44309;BME280;30022;55.846;37.340;2024-03-25T02:51:40;-18220.69;;;-143.51;100.00
44309;BME280;30022;55.846;37.340;2024-03-25T02:54:06;-18220.69;;;-143.51;100.00
44309;BME280;30022;55.846;37.340;2024-03-25T02:56:31;-18220.69;;;-143.51;100.00
44309;BME280;30022;55.846;37.340;2024-03-25T02:58:57;-18220.69;;;-143.51;100.00
44309;BME280;30022;55.846;37.340;2024-03-25T03:01:23;-18220.69;;;-143.51;100.00
44309;BME280;30022;55.846;37.340;2024-03-25T03:03:49;-18220.69;;;-143.51;100.00
44309;BME280;30022;55.846;37.340;2024-03-25T03:06:15;-18220.69;;;-143.51;100.00
44309;BME280;30022;55.846;37.340;2024-03-25T03:08:40;-18220.69;;;-143.51;100.00
44309;BME280;30022;55.846;37.340;2024-03-25T03:11:06;-18220.69;;;-143.51;100.00
44309;BME280;30022;55.846;37.340;2024-03-25T03:13:32;-18220.69;;;-143.51;100.00
44309;BME280;30022;55.846;37.340;2024-03-25T03:15:57;-18220.69;;;-143.51;100.00
44309;BME280;30022;55.846;37.340;2024-03-25T03:18:23;-18220.69;;;-143.51;100.00
44309;BME280;30022;55.846;37.340;2024-03-25T03:20:48;-18220.69;;;-143.51;100.00
44309;BME280;30022;55.846;37.340;2024-03-25T03:23:14;-18220.69;;;-143.51;100.00
44309;BME280;30022;55.846;37.340;2024-03-25T03:25:40;-18220.69;;;-143.51;100.00
44309;BME280;30022;55.846;37.340;2024-03-25T03:28:06;-18220.69;;;-143.51;100.00
44309;BME280;30022;55.846;37.340;2024-03-25T03:30:31;-18220.69;;;-143.51;100.00
44309;BME280;30022;55.846;37.340;2024-03-25T03:32:57;-18220.69;;;-143.51;100.00
44309;BME280;30022;55.846;37.340;2024-03-25T03:35:23;-18220.69;;;-143.51;100.00
44309;BME280;30022;55.846;37.340;2024-03-25T03:37:48;-18220.69;;;-143.51;100.00
44309;BME280;30022;55.846;37.340;2024-03-25T03:40:14;-18220.69;;;-143.51;100.00
44309;BME280;30022;55.846;37.340;2024-03-25T03:42:40;-18220.69;;;-143.51;100.00
44309;BME280;30022;55.846;37.340;2024-03-25T03:45:06;-18220.69;;;-143.51;100.00
44309;BME280;30022;55.846;37.340;2024-03-25T03:47:32;-18220.69;;;-143.51;100.00
44309;BME280;30022;55.846;37.340;2024-03-25T03:49:58;-18220.69;;;-143.51;100.00
44309;BME280;30022;55.846;37.340;2024-03-25T03:52:24;-18220.69;;;-143.51;100.00
44309;BME280;30022;55.846;37.340;2024-03-25T03:54:51;-18220.69;;;-143.51;100.00
44309;BME280;30022;55.846;37.340;2024-03-25T03:57:16;-18220.69;;;-143.51;100.00
44309;BME280;30022;55.846;37.340;2024-03-25T03:59:43;-18220.69;;;-143.51;100.00
44309;BME280;30022;55.846;37.340;2024-03-25T04:02:09;-18220.69;;;-143.51;100.00
44309;BME280;30022;55.846;37.340;2024-03-25T04:04:36;-18220.69;;;-143.51;100.00
44309;BME280;30022;55.846;37.340;2024-03-25T04:07:02;-18220.69;;;-143.51;100.00
44309;BME280;30022;55.846;37.340;2024-03-25T04:09:28;-18220.69;;;-143.51;100.00
44309;BME280;30022;55.846;37.340;2024-03-25T04:11:56;-18220.69;;;-143.51;100.00
44309;BME280;30022;55.846;37.340;2024-03-25T04:14:22;-18220.69;;;-143.51;100.00
44309;BME280;30022;55.846;37.340;2024-03-25T04:16:48;-18220.69;;;-143.51;100.00
44309;BME280;30022;55.846;37.340;2024-03-25T04:19:20;-18220.69;;;-143.51;100.00
44309;BME280;30022;55.846;37.340;2024-03-25T04:21:49;-18220.69;;;-143.51;100.00
44309;BME280;30022;55.846;37.340;2024-03-25T04:24:14;-18220.69;;;-143.51;100.00
44309;BME280;30022;55.846;37.340;2024-03-25T04:26:42;-18220.69;;;-143.51;100.00
44309;BME280;30022;55.846;37.340;2024-03-25T04:29:10;-18220.69;;;-143.51;100.00
44309;BME280;30022;55.846;37.340;2024-03-25T04:31:51;-18220.69;;;-143.51;100.00
44309;BME280;30022;55.846;37.340;2024-03-25T04:37:29;-18220.69;;;-143.51;100.00
44309;BME280;30022;55.846;37.340;2024-03-25T04:43:28;-18220.69;;;-143.51;100.00
44309;BME280;30022;55.846;37.340;2024-03-25T04:45:55;-18220.69;;;-143.51;100.00
44309;BME280;30022;55.846;37.340;2024-03-25T04:48:25;-18220.69;;;-143.51;100.00
44309;BME280;30022;55.846;37.340;2024-03-25T04:50:59;-18220.69;;;-143.51;100.00
44309;BME280;30022;55.846;37.340;2024-03-25T05:00:36;-18220.69;;;-143.51;100.00
44309;BME280;30022;55.846;37.340;2024-03-25T05:03:19;-18220.69;;;-143.51;100.00
44309;BME280;30022;55.846;37.340;2024-03-25T05:06:07;-18220.69;;;-143.51;100.00
44309;BME280;30022;55.846;37.340;2024-03-25T06:46:14;-13493.06;;;-143.51;100.00
44309;BME280;30022;55.846;37.340;2024-03-25T06:48:46;-12248.38;;;-143.51;100.00
44309;BME280;30022;55.846;37.340;2024-03-25T06:51:12;-11999.38;;;-143.51;100.00
44309;BME280;30022;55.846;37.340;2024-03-25T06:53:38;-12248.38;;;-143.51;100.00
44309;BME280;30022;55.846;37.340;2024-03-25T06:56:04;-11003.25;;;-143.51;100.00
44309;BME280;30022;55.846;37.340;2024-03-25T06:58:34;-9259.44;;;-143.51;100.00
44309;BME280;30022;55.846;37.340;2024-03-25T07:01:07;-7514.81;;;-143.51;100.00
44309;BME280;30022;55.846;37.340;2024-03-25T07:03:34;-6268.19;;;-143.51;100.00
44309;BME280;30022;55.846;37.340;2024-03-25T07:06:01;-3524.16;;;-143.51;100.00
44309;BME280;30022;55.846;37.340;2024-03-25T07:08:28;-1776.91;;;-143.51;100.00
44309;BME280;30022;55.846;37.340;2024-03-25T07:10:56;-1527.25;;;-143.51;100.00
44309;BME280;30022;55.846;37.340;2024-03-25T07:13:25;470.69;;;-143.51;100.00
44309;BME280;30022;55.846;37.340;2024-03-25T07:15:51;2969.53;;;-143.51;100.00
44309;BME280;30022;55.846;37.340;2024-03-25T07:18:17;9724.56;;;-143.51;100.00
44309;BME280;30022;55.846;37.340;2024-03-25T07:20:45;11978.88;;;-143.51;100.00
44309;BME280;30022;55.846;37.340;2024-03-25T07:23:13;9724.56;;;-143.51;100.00
44309;BME280;30022;55.846;37.340;2024-03-25T07:25:39;8472.75;;;-143.51;100.00
44309;BME280;30022;55.846;37.340;2024-03-25T07:28:06;8723.09;;;-143.51;100.00
44309;BME280;30022;55.846;37.340;2024-03-25T07:30:33;9223.81;;;-143.51;100.00
44309;BME280;30022;55.846;37.340;2024-03-25T07:32:59;12480.00;;;-143.51;100.00
44309;BME280;30022;55.846;37.340;2024-03-25T07:35:29;15237.41;;;-143.51;100.00
44309;BME280;30022;55.846;37.340;2024-03-25T07:37:54;15989.75;;;-143.51;100.00
44309;BME280;30022;55.846;37.340;2024-03-25T07:40:21;14735.91;;;-143.51;100.00
44309;BME280;30022;55.846;37.340;2024-03-25T07:42:49;14485.19;;;-143.51;100.00
44309;BME280;30022;55.846;37.340;2024-03-25T07:45:15;13983.81;;;-143.51;100.00
44309;BME280;30022;55.846;37.340;2024-03-25T07:47:41;13231.84;;;-143.51;100.00
44309;BME280;30022;55.846;37.340;2024-03-25T07:50:07;13482.47;;;-143.51;100.00
44309;BME280;30022;55.846;37.340;2024-03-25T07:52:34;12480.00;;;-143.51;100.00
44309;BME280;30022;55.846;37.340;2024-03-25T07:55:01;16993.13;;;-143.51;100.00
44309;BME280;30022;55.846;37.340;2024-03-25T07:57:28;21511.50;;;-143.51;100.00
44309;BME280;30022;55.846;37.340;2024-03-25T07:59:53;20758.06;;;-143.51;100.00
44309;BME280;30022;55.846;37.340;2024-03-25T08:02:19;17494.91;;;-143.51;100.00
44309;BME280;30022;55.846;37.340;2024-03-25T08:04:45;20255.88;;;-143.51;100.00
44309;BME280;30022;55.846;37.340;2024-03-25T08:07:11;23270.03;;;-143.51;100.00
44309;BME280;30022;55.846;37.340;2024-03-25T08:09:39;26035.09;;;-143.51;100.00
44309;BME280;30022;55.846;37.340;2024-03-25T08:12:05;29975.94;;;-143.51;100.00
44309;BME280;30022;55.846;37.340;2024-03-25T08:14:32;32230.19;;;-143.51;100.00
44309;BME280;30022;55.846;37.340;2024-03-25T08:16:57;32015.72;;;-143.51;100.00
44309;BME280;30022;55.846;37.340;2024-03-25T08:19:26;33818.38;;;-143.51;100.00
44309;BME280;30022;55.846;37.340;2024-03-25T08:21:52;31964.56;;;-143.51;100.00
44309;BME280;30022;55.846;37.340;2024-03-25T08:24:18;28298.88;;;-143.51;100.00
44309;BME280;30022;55.846;37.340;2024-03-25T08:26:44;28849.28;;;-143.51;100.00
44309;BME280;30022;55.846;37.340;2024-03-25T08:29:10;33153.09;;;-143.51;100.00
44309;BME280;30022;55.846;37.340;2024-03-25T08:31:42;35978.31;;;-143.51;100.00
44309;BME280;30022;55.846;37.340;2024-03-25T08:34:09;36718.94;;;-143.51;100.00
44309;BME280;30022;55.846;37.340;2024-03-25T08:36:35;33192.47;;;-143.51;100.00
44309;BME280;30022;55.846;37.340;2024-03-25T08:39:00;35783.34;;;-143.51;100.00
44309;BME280;30022;55.846;37.340;2024-03-25T08:41:26;37083.38;;;-143.51;100.00
44309;BME280;30022;55.846;37.340;2024-03-25T08:46:51;38425.22;;;-143.51;100.00
44309;BME280;30022;55.846;37.340;2024-03-25T08:49:38;38898.22;;;-143.51;100.00
44309;BME280;30022;55.846;37.340;2024-03-25T08:52:06;40323.50;;;-143.51;100.00
44309;BME280;30022;55.846;37.340;2024-03-25T08:57:36;39530.94;;;-143.51;100.00
44309;BME280;30022;55.846;37.340;2024-03-25T09:07:45;38774.06;;;-143.51;100.00
44309;BME280;30022;55.846;37.340;2024-03-25T09:10:27;39986.34;;;-143.51;100.00
44309;BME280;30022;55.846;37.340;2024-03-25T09:13:18;40568.00;;;-143.51;100.00
44309;BME280;30022;55.846;37.340;2024-03-25T09:19:15;40556.16;;;-143.51;100.00
44309;BME280;30022;55.846;37.340;2024-03-25T09:22:26;40331.38;;;-143.51;100.00
44309;BME280;30022;55.846;37.340;2024-03-25T09:24:53;41968.22;;;-143.51;100.00
44309;BME280;30022;55.846;37.340;2024-03-25T09:30:48;42204.94;;;-143.51;100.00
44309;BME280;30022;55.846;37.340;2024-03-25T09:33:20;41715.75;;;-143.51;100.00
44309;BME280;30022;55.846;37.340;2024-03-25T09:35:49;41814.38;;;-143.51;100.00
44309;BME280;30022;55.846;37.340;2024-03-25T09:45:24;41855.78;;;-143.51;100.00
44309;BME280;30022;55.846;37.340;2024-03-25T09:47:52;42108.28;;;-143.51;100.00
44309;BME280;30022;55.846;37.340;2024-03-25T09:50:27;41291.72;;;-143.51;100.00
44309;BME280;30022;55.846;37.340;2024-03-25T09:52:57;41013.63;;;-143.51;100.00
44309;BME280;30022;55.846;37.340;2024-03-25T09:55:28;40999.84;;;-143.51;100.00
44309;BME280;30022;55.846;37.340;2024-03-25T09:57:54;41449.47;;;-143.51;100.00
44309;BME280;30022;55.846;37.340;2024-03-25T10:00:22;41567.81;;;-143.51;100.00
44309;BME280;30022;55.846;37.340;2024-03-25T10:02:48;41745.34;;;-143.51;100.00
44309;BME280;30022;55.846;37.340;2024-03-25T10:05:15;44827.41;;;-143.51;100.00
44309;BME280;30022;55.846;37.340;2024-03-25T10:07:45;45182.75;;;-143.51;100.00
44309;BME280;30022;55.846;37.340;2024-03-25T10:10:11;45230.13;;;-143.51;100.00
44309;BME280;30022;55.846;37.340;2024-03-25T10:12:37;45336.72;;;-143.51;100.00
44309;BME280;30022;55.846;37.340;2024-03-25T10:15:05;45433.47;;;-143.51;100.00
44309;BME280;30022;55.846;37.340;2024-03-25T10:17:31;45358.44;;;-143.51;100.00
44309;BME280;30022;55.846;37.340;2024-03-25T10:19:57;45168.94;;;-143.51;100.00
44309;BME280;30022;55.846;37.340;2024-03-25T10:22:23;45346.59;;;-143.51;100.00
44309;BME280;30022;55.846;37.340;2024-03-25T10:24:50;45332.78;;;-143.51;100.00
44309;BME280;30022;55.846;37.340;2024-03-25T10:27:37;45273.56;;;-143.51;100.00
44309;BME280;30022;55.846;37.340;2024-03-25T10:30:04;45192.63;;;-143.51;100.00
44309;BME280;30022;55.846;37.340;2024-03-25T10:32:38;45263.69;;;-143.51;100.00
44309;BME280;30022;55.846;37.340;2024-03-25T10:35:08;45322.91;;;-143.51;100.00
44309;BME280;30022;55.846;37.340;2024-03-25T10:37:38;45117.59;;;-143.51;100.00
44309;BME280;30022;55.846;37.340;2024-03-25T10:40:04;45362.41;;;-143.51;100.00
44309;BME280;30022;55.846;37.340;2024-03-25T10:42:31;45336.72;;;-143.51;100.00
44309;BME280;30022;55.846;37.340;2024-03-25T10:44:57;45425.56;;;-143.51;100.00
44309;BME280;30022;55.846;37.340;2024-03-25T10:47:29;45149.19;;;-143.51;100.00
44309;BME280;30022;55.846;37.340;2024-03-25T10:50:08;45091.94;;;-143.51;100.00
44309;BME280;30022;55.846;37.340;2024-03-25T10:52:38;45157.09;;;-143.51;100.00
44309;BME280;30022;55.846;37.340;2024-03-25T10:55:06;45382.13;;;-143.51;100.00
44309;BME280;30022;55.846;37.340;2024-03-25T10:57:34;45419.66;;;-143.51;100.00
44309;BME280;30022;55.846;37.340;2024-03-25T11:00:01;45522.31;;;-143.51;100.00
44309;BME280;30022;55.846;37.340;2024-03-25T11:02:30;45563.78;;;-143.51;100.00
44309;BME280;30022;55.846;37.340;2024-03-25T11:05:05;45443.34;;;-143.51;100.00
44309;BME280;30022;55.846;37.340;2024-03-25T11:07:32;45664.47;;;-143.51;100.00
44309;BME280;30022;55.846;37.340;2024-03-25T11:10:02;45587.47;;;-143.51;100.00
44309;BME280;30022;55.846;37.340;2024-03-25T11:12:37;45469.00;;;-143.51;100.00
44309;BME280;30022;55.846;37.340;2024-03-25T11:15:09;45542.06;;;-143.51;100.00
44309;BME280;30022;55.846;37.340;2024-03-25T11:17:47;45638.78;;;-143.51;100.00
44309;BME280;30022;55.846;37.340;2024-03-25T11:20:43;45759.22;;;-143.51;100.00
44309;BME280;30022;55.846;37.340;2024-03-25T11:23:09;45701.97;;;-143.51;100.00
44309;BME280;30022;55.846;37.340;2024-03-25T11:25:36;45658.53;;;-143.51;100.00
44309;BME280;30022;55.846;37.340;2024-03-25T11:28:02;45439.38;;;-143.51;100.00
44309;BME280;30022;55.846;37.340;2024-03-25T11:30:30;45472.94;;;-143.51;100.00
44309;BME280;30022;55.846;37.340;2024-03-25T11:33:01;45617.06;;;-143.51;100.00
44309;BME280;30022;55.846;37.340;2024-03-25T11:35:27;45694.06;;;-143.51;100.00
44309;BME280;30022;55.846;37.340;2024-03-25T11:37:54;45798.72;;;-143.51;100.00
44309;BME280;30022;55.846;37.340;2024-03-25T11:40:19;45755.28;;;-143.51;100.00
44309;BME280;30022;55.846;37.340;2024-03-25T11:42:48;45725.66;;;-143.51;100.00
44309;BME280;30022;55.846;37.340;2024-03-25T11:45:25;45735.53;;;-143.51;100.00
44309;BME280;30022;55.846;37.340;2024-03-25T11:47:52;45786.88;;;-143.51;100.00
44309;BME280;30022;55.846;37.340;2024-03-25T11:50:20;45751.34;;;-143.51;100.00
44309;BME280;30022;55.846;37.340;2024-03-25T11:52:47;45694.06;;;-143.51;100.00
44309;BME280;30022;55.846;37.340;2024-03-25T11:55:16;45626.94;;;-143.51;100.00
44309;BME280;30022;55.846;37.340;2024-03-25T11:57:44;45709.88;;;-143.51;100.00
44309;BME280;30022;55.846;37.340;2024-03-25T12:00:12;45778.97;;;-143.51;100.00
44309;BME280;30022;55.846;37.340;2024-03-25T12:02:44;45709.88;;;-143.51;100.00
44309;BME280;30022;55.846;37.340;2024-03-25T12:05:23;45777.00;;;-143.51;100.00
44309;BME280;30022;55.846;37.340;2024-03-25T12:10:53;45733.56;;;-143.51;100.00
44309;BME280;30022;55.846;37.340;2024-03-25T12:13:56;45775.03;;;-143.51;100.00
44309;BME280;30022;55.846;37.340;2024-03-25T12:16:26;45814.50;;;-143.51;100.00
44309;BME280;30022;55.846;37.340;2024-03-25T12:18:51;45769.09;;;-143.51;100.00
44309;BME280;30022;55.846;37.340;2024-03-25T12:21:19;45792.78;;;-143.51;100.00
44309;BME280;30022;55.846;37.340;2024-03-25T12:23:47;45763.19;;;-143.51;100.00
44309;BME280;30022;55.846;37.340;2024-03-25T12:26:15;45751.34;;;-143.51;100.00
44309;BME280;30022;55.846;37.340;2024-03-25T12:28:41;45698.03;;;-143.51;100.00
44309;BME280;30022;55.846;37.340;2024-03-25T12:31:10;45701.97;;;-143.51;100.00
44309;BME280;30022;55.846;37.340;2024-03-25T12:33:40;45780.94;;;-143.51;100.00
44309;BME280;30022;55.846;37.340;2024-03-25T12:36:06;45824.38;;;-143.51;100.00
44309;BME280;30022;55.846;37.340;2024-03-25T12:38:33;45830.31;;;-143.51;100.00
44309;BME280;30022;55.846;37.340;2024-03-25T12:41:04;45788.84;;;-143.51;100.00
44309;BME280;30022;55.846;37.340;2024-03-25T12:43:31;45733.56;;;-143.51;100.00
44309;BME280;30022;55.846;37.340;2024-03-25T12:45:58;45759.22;;;-143.51;100.00
44309;BME280;30022;55.846;37.340;2024-03-25T12:48:25;45658.53;;;-143.51;100.00
44309;BME280;30022;55.846;37.340;2024-03-25T12:50:56;45664.47;;;-143.51;100.00
44309;BME280;30022;55.846;37.340;2024-03-25T12:53:23;45745.41;;;-143.51;100.00
44309;BME280;30022;55.846;37.340;2024-03-25T12:55:53;45761.22;;;-143.51;100.00
44309;BME280;30022;55.846;37.340;2024-03-25T12:58:20;45717.78;;;-143.51;100.00
44309;BME280;30022;55.846;37.340;2024-03-25T13:00:46;45771.06;;;-143.51;100.00
44309;BME280;30022;55.846;37.340;2024-03-25T13:03:12;45733.56;;;-143.51;100.00
44309;BME280;30022;55.846;37.340;2024-03-25T13:05:42;45755.28;;;-143.51;100.00
44309;BME280;30022;55.846;37.340;2024-03-25T13:08:10;45769.09;;;-143.51;100.00
44309;BME280;30022;55.846;37.340;2024-03-25T13:10:36;45773.06;;;-143.51;100.00
44309;BME280;30022;55.846;37.340;2024-03-25T13:13:02;45769.09;;;-143.51;100.00
44309;BME280;30022;55.846;37.340;2024-03-25T13:15:27;45735.53;;;-143.51;100.00
44309;BME280;30022;55.846;37.340;2024-03-25T13:17:55;45757.25;;;-143.51;100.00
44309;BME280;30022;55.846;37.340;2024-03-25T13:20:20;45814.50;;;-143.51;100.00
44309;BME280;30022;55.846;37.340;2024-03-25T13:22:46;45836.22;;;-143.51;100.00
44309;BME280;30022;55.846;37.340;2024-03-25T13:25:13;45824.38;;;-143.51;100.00
44309;BME280;30022;55.846;37.340;2024-03-25T13:27:39;45824.38;;;-143.51;100.00
44309;BME280;30022;55.846;37.340;2024-03-25T13:30:05;45861.91;;;-143.51;100.00
44309;BME280;30022;55.846;37.340;2024-03-25T13:32:35;45846.09;;;-143.51;100.00
44309;BME280;30022;55.846;37.340;2024-03-25T13:35:00;45927.06;;;-143.51;100.00
44309;BME280;30022;55.846;37.340;2024-03-25T13:37:26;45903.38;;;-143.51;100.00
44309;BME280;30022;55.846;37.340;2024-03-25T13:39:52;45859.94;;;-143.51;100.00
44309;BME280;30022;55.846;37.340;2024-03-25T13:42:18;45782.94;;;-143.51;100.00
44309;BME280;30022;55.846;37.340;2024-03-25T13:44:51;45800.69;;;-143.51;100.00
44309;BME280;30022;55.846;37.340;2024-03-25T13:47:18;45885.59;;;-143.51;100.00
44309;BME280;30022;55.846;37.340;2024-03-25T13:52:39;45867.81;;;-143.51;100.00
44309;BME280;30022;55.846;37.340;2024-03-25T13:55:07;45887.56;;;-143.51;100.00
44309;BME280;30022;55.846;37.340;2024-03-25T13:57:34;45927.06;;;-143.51;100.00
44309;BME280;30022;55.846;37.340;2024-03-25T14:06:49;45923.13;;;-143.51;100.00
44309;BME280;30022;55.846;37.340;2024-03-25T14:12:49;45891.53;;;-143.51;100.00
44309;BME280;30022;55.846;37.340;2024-03-25T14:18:30;45808.59;;;-143.51;100.00
44309;BME280;30022;55.846;37.340;2024-03-25T14:37:57;45855.97;;;-143.51;100.00
44309;BME280;30022;55.846;37.340;2024-03-25T14:40:27;45865.84;;;-143.51;100.00
44309;BME280;30022;55.846;37.340;2024-03-25T14:42:57;45777.00;;;-143.51;100.00
44309;BME280;30022;55.846;37.340;2024-03-25T14:45:26;45759.22;;;-143.51;100.00
44309;BME280;30022;55.846;37.340;2024-03-25T14:47:55;45729.63;;;-143.51;100.00
44309;BME280;30022;55.846;37.340;2024-03-25T14:50:21;45676.31;;;-143.51;100.00
44309;BME280;30022;55.846;37.340;2024-03-25T14:52:47;45358.44;;;-143.51;100.00
44309;BME280;30022;55.846;37.340;2024-03-25T14:55:19;45338.72;;;-143.51;100.00
44309;BME280;30022;55.846;37.340;2024-03-25T14:58:01;45544.03;;;-143.51;100.00
44309;BME280;30022;55.846;37.340;2024-03-25T15:00:32;45476.91;;;-143.51;100.00
44309;BME280;30022;55.846;37.340;2024-03-25T15:03:01;45255.78;;;-143.51;100.00
44309;BME280;30022;55.846;37.340;2024-03-25T15:05:28;45117.59;;;-143.51;100.00
44309;BME280;30022;55.846;37.340;2024-03-25T15:07:55;45164.97;;;-143.51;100.00
44309;BME280;30022;55.846;37.340;2024-03-25T15:10:21;45334.75;;;-143.51;100.00
44309;BME280;30022;55.846;37.340;2024-03-25T15:12:52;45526.25;;;-143.51;100.00
44309;BME280;30022;55.846;37.340;2024-03-25T15:15:19;45621.03;;;-143.51;100.00